Flight Track Log - Related Links

Times and Time Zones

All times are in EDT time to prevent confusion due to time zone crossing. See the ASQ6116 flight status page for this flight to view local times or setup timezone preferences in your user account.

Time Position Orientation Groundspeed Altitude Reporting Facility
EDT Latitude Longitude Course Direction KTS MPH feet Rate Location/Type
Mon 05:33:14 PM 49.9167 -97.2833 270° West 170 196 2,700  Level Winnipeg Center
Mon 05:34:14 PM 49.9167 -97.3500 213° Southwest 210 242 6,100 3,400 Climbing Winnipeg Center
Mon 05:35:14 PM 49.8667 -97.4000 198° South 230 265 9,500 2,200 Climbing Winnipeg Center
Mon 05:36:14 PM 49.8000 -97.4333 198° South 280 322 10,500 1,400 Climbing Winnipeg Center
Mon 05:37:14 PM 49.7000 -97.4833 213° Southwest 340 391 12,300 1,950 Climbing Winnipeg Center
Mon 05:38:14 PM 49.6167 -97.5667 207° Southwest 350 403 14,400 2,150 Climbing Winnipeg Center
Mon 05:39:14 PM 49.5333 -97.6333 213° Southwest 350 403 16,600 2,200 Climbing Winnipeg Center
Mon 05:40:14 PM 49.4500 -97.7167 203° Southwest 360 414 18,800 2,050 Climbing Winnipeg Center
Mon 05:41:14 PM 49.3500 -97.7833 218° Southwest 360 414 20,700 1,950 Climbing Winnipeg Center
Mon 05:42:14 PM 49.2667 -97.8833 213° Southwest 370 426 22,700 1,950 Climbing Winnipeg Center
Mon 05:43:14 PM 49.1833 -97.9667 204° Southwest 370 426 24,600 1,950 Climbing Winnipeg Center
Mon 05:44:14 PM 49.0833 -98.0333 213° Southwest 370 426 26,600 1,950 Climbing Winnipeg Center
Mon 05:45:14 PM 49.0000 -98.1167 208° Southwest 360 414 28,500 1,900 Climbing Winnipeg Center
Mon 05:46:14 PM 48.9167 -98.1833 213° Southwest 360 414 30,400 1,850 Climbing Winnipeg Center
Mon 05:47:14 PM 48.8333 -98.2667 208° Southwest 360 414 32,200 1,750 Climbing Winnipeg Center
Mon 05:48:14 PM 48.7500 -98.3333 213° Southwest 360 414 33,900 1,550 Climbing Winnipeg Center
Mon 05:49:14 PM 48.6667 -98.4167 208° Southwest 350 403 35,300 1,050 Climbing Winnipeg Center
Mon 05:50:14 PM 48.5833 -98.4833 214° Southwest 360 414 36,000 350 Climbing Winnipeg Center
Mon 05:51:14 PM 48.4833 -98.5833 204° Southwest 380 437 36,000  Level Winnipeg Center
Mon 05:52:14 PM 48.3833 -98.6500 219° Southwest 410 472 36,000  Level Winnipeg Center
Mon 05:53:14 PM 48.3000 -98.7500 204° Southwest 410 472 36,000  Level Winnipeg Center
Mon 05:54:14 PM 48.2000 -98.8167 210° Southwest 410 472 36,000  Level Winnipeg Center
Mon 05:55:14 PM 48.0833 -98.9167 207° Southwest 410 472 36,000 -134 Level Winnipeg Center
Mon 06:03:15 PM 47.3167 -99.5596 206° Southwest  Level FlightAware Approximate
Mon 06:04:15 PM 47.2202 -99.6369 206° Southwest  Level FlightAware Approximate
Mon 06:05:15 PM 47.1237 -99.7140 206° Southwest  Level FlightAware Approximate
Mon 06:06:15 PM 47.0264 -99.7888 206° Southwest  Level FlightAware Approximate
Mon 06:07:15 PM 46.9298 -99.8654 206° Southwest  Level FlightAware Approximate
Mon 06:08:15 PM 46.8331 -99.9417 206° Southwest  Level FlightAware Approximate
Mon 06:09:15 PM 46.7364 -100.0177 205° Southwest  Level FlightAware Approximate
Mon 06:10:15 PM 46.6396 -100.0934 205° Southwest  Level FlightAware Approximate
Mon 06:11:15 PM 46.5428 -100.1689 205° Southwest  Level FlightAware Approximate
Mon 06:12:15 PM 46.4459 -100.2441 205° Southwest  Level FlightAware Approximate
Mon 06:13:15 PM 46.3479 -100.3154 205° Southwest  Level FlightAware Approximate
Mon 06:14:15 PM 46.2510 -100.3901 205° Southwest  Level FlightAware Approximate
Mon 06:15:15 PM 46.1540 -100.4646 205° Southwest  Level FlightAware Approximate
Mon 06:16:15 PM 46.0570 -100.5389 205° Southwest  Level FlightAware Approximate
Mon 06:17:15 PM 45.9592 -100.6107 205° Southwest  Level FlightAware Approximate
Mon 06:18:15 PM 45.8620 -100.6842 204° Southwest  Level FlightAware Approximate
Mon 06:19:15 PM 45.7647 -100.7575 204° Southwest  Level FlightAware Approximate
Mon 06:20:15 PM 45.6674 -100.8305 204° Southwest  Level FlightAware Approximate
Mon 06:21:15 PM 45.5701 -100.9032 204° Southwest  Level FlightAware Approximate
Mon 06:22:15 PM 45.4727 -100.9757 204° Southwest  Level FlightAware Approximate
Mon 06:23:15 PM 45.3753 -101.0480 204° Southwest  Level FlightAware Approximate
Mon 06:24:15 PM 45.2778 -101.1200 204° Southwest  Level FlightAware Approximate
Mon 06:25:15 PM 45.1803 -101.1917 204° Southwest  Level FlightAware Approximate
Mon 06:26:15 PM 45.0827 -101.2632 203° Southwest  Level FlightAware Approximate
Mon 06:27:15 PM 44.9851 -101.3345 203° Southwest  Level FlightAware Approximate
Mon 06:28:15 PM 44.8875 -101.4055 203° Southwest  Level FlightAware Approximate
Mon 06:29:15 PM 44.7898 -101.4763 203° Southwest  Level FlightAware Approximate
Mon 06:30:15 PM 44.6948 -101.5538 203° Southwest  Level FlightAware Approximate
Mon 06:31:15 PM 44.5951 -101.6187 203° Southwest  Level FlightAware Approximate
Mon 06:32:15 PM 44.4954 -101.6834 203° Southwest  Level FlightAware Approximate
Mon 06:33:15 PM 44.3957 -101.7479 203° Southwest  Level FlightAware Approximate
Mon 06:34:15 PM 44.2960 -101.8122 202° Southwest  Level FlightAware Approximate
Mon 06:35:15 PM 44.1962 -101.8763 202° Southwest  Level FlightAware Approximate
Mon 06:36:15 PM 44.0964 -101.9401 202° Southwest  Level FlightAware Approximate
Mon 06:37:15 PM 43.9965 -102.0038 202° Southwest  Level FlightAware Approximate
Mon 06:38:15 PM 43.8966 -102.0672 202° Southwest  Level FlightAware Approximate
Mon 06:39:15 PM 43.7967 -102.1304 202° Southwest  Level FlightAware Approximate
Mon 06:40:15 PM 43.6967 -102.1934 202° Southwest  Level FlightAware Approximate
Mon 06:41:15 PM 43.5967 -102.2561 202° Southwest  Level FlightAware Approximate
Mon 06:42:15 PM 43.4967 -102.3187 201° Southwest  Level FlightAware Approximate
Mon 06:43:15 PM 43.3966 -102.3811 201° Southwest  Level FlightAware Approximate
Mon 06:44:15 PM 43.2966 -102.4433 201° Southwest  Level FlightAware Approximate
Mon 06:45:15 PM 43.1964 -102.5052 201° Southwest  Level FlightAware Approximate
Mon 06:46:15 PM 43.0963 -102.5670 201° Southwest  Level FlightAware Approximate
Mon 06:47:15 PM 42.9961 -102.6285 200° South  Level FlightAware Approximate
Mon 06:48:15 PM 42.8958 -102.6899 200° South  Level FlightAware Approximate
Mon 06:49:15 PM 42.7967 -102.7545 200° South  Level FlightAware Approximate
Mon 06:50:15 PM 42.6976 -102.8189 200° South  Level FlightAware Approximate
Mon 06:51:15 PM 42.6589 -102.9552 197° South  Level FlightAware Approximate
Mon 06:52:15 PM 42.5594 -103.0184 197° South  Level FlightAware Approximate
Mon 06:53:15 PM 42.4599 -103.0814 196° South  Level FlightAware Approximate
Mon 06:54:15 PM 42.3604 -103.1442 196° South  Level FlightAware Approximate
Mon 06:55:15 PM 42.2608 -103.2069 195° South  Level FlightAware Approximate
Mon 06:56:15 PM 42.1611 -103.2693 194° South  Level FlightAware Approximate
Mon 06:57:15 PM 42.0615 -103.3315 193° South  Level FlightAware Approximate
Mon 06:58:15 PM 41.9618 -103.3936 192° South  Level FlightAware Approximate
Mon 06:59:15 PM 41.8691 -103.4690 191° South  Level FlightAware Approximate
Mon 07:00:15 PM 41.7601 -103.4872 191° South  Level FlightAware Approximate
Mon 07:01:15 PM 41.6511 -103.5056 191° South  Level FlightAware Approximate
Mon 07:02:15 PM 41.5526 -103.5706 190° South  Level FlightAware Approximate
Mon 07:03:15 PM 41.4541 -103.6354 187° South  Level FlightAware Approximate
Mon 07:04:15 PM 41.3555 -103.7000 184° South  Level FlightAware Approximate
Mon 07:05:15 PM 41.2569 -103.7644 180° South  Level FlightAware Approximate
Mon 07:05:17 PM 40.6836 -103.7650 210° Southwest 457 526 26,500  Level Denver Center
Mon 07:07:54 PM 40.4167 -103.9667 211° Southwest 384 442 17,500 -2,844 Descending Denver TRACON
Mon 07:08:48 PM 40.3333 -104.0333 248° West 326 375 16,500 -1,271 Descending Denver TRACON
Mon 07:11:17 PM 40.2647 -104.2553 264° West 276 318 13,200 -976 Descending Denver Center
Mon 07:12:17 PM 40.2561 -104.3564 265° West 281 323 13,100 -50 Descending Denver Center
Mon 07:13:17 PM 40.2494 -104.4544 241° Southwest 281 323 13,100 -750 Level Denver Center
Mon 07:14:17 PM 40.2114 -104.5428 221° Southwest 275 316 11,600 -1,600 Descending Denver Center
Mon 07:15:17 PM 40.1561 -104.6067 207° Southwest 270 311 9,900 -1,516 Descending Denver Center
Mon 07:15:48 PM 40.1167 -104.6333 207° Southwest 263 303 9,300 -1,055 Descending Denver TRACON
Mon 07:16:48 PM 40.0667 -104.6667 191° South 242 278 8,300 -1,000 Descending Denver TRACON
Mon 07:17:48 PM 40.0000 -104.6833 180° South 237 273 7,300 -1,056 Descending Denver TRACON
Mon 07:18:36 PM 39.9500 -104.6833 180° South 202 232 6,400 -889 Descending Denver TRACON
Mon 07:19:36 PM 39.9167 -104.6833 180° South 142 163 5,700 -700 Descending Denver TRACON

Login

Don't have an account? Register now (free) for customized features, flight alerts, and more!